Mus, Turkey
Current Conditions -  °F | °C
As of 2:39 PM on Thursday 27 Nov 2014 (Local Time) from LTCK Reporting Station
Moderate Rain Moderate Rain  
Wind Chill: 39°   Ceiling: 3000
Heat Index: 39°   Visibility: 6mi
Dew Point: 36°   Wind: 1mph
Humidity: 87%   Direction: NA
Pressure: 29.97"   Gusts: NA
Location:  38.74°N, 41.49°E
Report Text: LTCK 271139Z VRB01KT 9999 RA BKN030 OVC080 04/02 Q1015 RMK RWY1100000KT
Loading
Personal Weather Stations






























Interactive Weather Map New forecast layout! Learn more

10-Day Weather Forecast

Advertisements
Track Severe Weather on mobile